SAS647 EKCH-EDDH
Flight info
| Callsign | SAS647 |
|---|---|
| Flight time | 0h 45m |
| Altitude | 24000 |
| Route | NEXEN T503 MICOS N850 BOGMU BOGMU3N |
| Aircraft | A320/M-SDE3FGHIRWY/LB1 |
Departure
| Time | 2026-05-06 18:10 |
|---|---|
| Airport | Copenhagen Kastrup Airport (EKCH) |
Arrival
| Time | 2026-05-06 18:55 |
|---|---|
| Airport | Hamburg Helmut Schmidt Airport (EDDH) |
| Time | Latitude | Longitude | Altitude | Speed | Heading |
|---|---|---|---|---|---|
| 2026-05-06 17:28 | 55.62584 | 12.64562 | 26 ft | 0 kts | 344° |
| 2026-05-06 17:57 | 55.62573 | 12.64568 | 25 ft | 4 kts | 5° |
| 2026-05-06 17:57 | 55.62548 | 12.64564 | 24 ft | 2 kts | 344° |
| 2026-05-06 17:57 | 55.62528 | 12.64576 | 25 ft | 4 kts | 327° |
| 2026-05-06 17:58 | 55.62512 | 12.64607 | 24 ft | 4 kts | 276° |
| 2026-05-06 17:58 | 55.62518 | 12.64643 | 28 ft | 4 kts | 212° |
| 2026-05-06 17:58 | 55.62531 | 12.64652 | 25 ft | 0 kts | 179° |
| 2026-05-06 18:03 | 55.62530 | 12.64652 | 24 ft | 0 kts | 179° |
| 2026-05-06 18:03 | 55.62509 | 12.64654 | 26 ft | 5 kts | 176° |
| 2026-05-06 18:03 | 55.62461 | 12.64666 | 25 ft | 10 kts | 171° |
| 2026-05-06 18:04 | 55.62380 | 12.64676 | 24 ft | 13 kts | 178° |
| 2026-05-06 18:04 | 55.62312 | 12.64740 | 24 ft | 12 kts | 122° |
| 2026-05-06 18:04 | 55.62244 | 12.64793 | 24 ft | 12 kts | 186° |
| 2026-05-06 18:04 | 55.62163 | 12.64715 | 26 ft | 14 kts | 213° |
| 2026-05-06 18:05 | 55.62072 | 12.64610 | 23 ft | 17 kts | 213° |
| 2026-05-06 18:05 | 55.61964 | 12.64502 | 26 ft | 19 kts | 195° |
| 2026-05-06 18:05 | 55.61831 | 12.64533 | 24 ft | 20 kts | 169° |
| 2026-05-06 18:05 | 55.61701 | 12.64567 | 24 ft | 18 kts | 185° |
| 2026-05-06 18:06 | 55.61587 | 12.64463 | 24 ft | 20 kts | 212° |
| 2026-05-06 18:06 | 55.61467 | 12.64325 | 24 ft | 22 kts | 213° |
| 2026-05-06 18:06 | 55.61336 | 12.64175 | 24 ft | 24 kts | 212° |
| 2026-05-06 18:06 | 55.61193 | 12.64010 | 24 ft | 25 kts | 213° |
| 2026-05-06 18:07 | 55.61044 | 12.63839 | 24 ft | 23 kts | 213° |
| 2026-05-06 18:07 | 55.60926 | 12.63703 | 24 ft | 19 kts | 213° |
| 2026-05-06 18:07 | 55.60836 | 12.63598 | 25 ft | 13 kts | 213° |
| 2026-05-06 18:07 | 55.60775 | 12.63622 | 24 ft | 7 kts | 134° |
| 2026-05-06 18:08 | 55.60750 | 12.63673 | 24 ft | 2 kts | 131° |
| 2026-05-06 18:08 | 55.60744 | 12.63687 | 24 ft | 2 kts | 131° |
| 2026-05-06 18:08 | 55.60726 | 12.63722 | 24 ft | 5 kts | 131° |
| 2026-05-06 18:08 | 55.60696 | 12.63787 | 25 ft | 8 kts | 128° |
| 2026-05-06 18:09 | 55.60683 | 12.63866 | 26 ft | 7 kts | 69° |
| 2026-05-06 18:09 | 55.60725 | 12.63942 | 25 ft | 13 kts | 41° |
| 2026-05-06 18:09 | 55.60913 | 12.64234 | 25 ft | 69 kts | 41° |
| 2026-05-06 18:09 | 55.61445 | 12.65057 | 25 ft | 129 kts | 41° |
| 2026-05-06 18:10 | 55.62236 | 12.66279 | 58 ft | 168 kts | 45° |
| 2026-05-06 18:10 | 55.63109 | 12.67598 | 662 ft | 164 kts | 45° |
| 2026-05-06 18:10 | 55.63953 | 12.68911 | 1331 ft | 165 kts | 47° |
| 2026-05-06 18:10 | 55.64857 | 12.70337 | 1669 ft | 183 kts | 45° |
| 2026-05-06 18:11 | 55.65863 | 12.71909 | 1980 ft | 202 kts | 43° |
| 2026-05-06 18:11 | 55.67002 | 12.73628 | 2296 ft | 227 kts | 43° |
| 2026-05-06 18:11 | 55.68252 | 12.75539 | 2809 ft | 246 kts | 48° |
| 2026-05-06 18:11 | 55.69149 | 12.78120 | 3599 ft | 249 kts | 73° |
| 2026-05-06 18:12 | 55.69332 | 12.81155 | 4485 ft | 251 kts | 99° |
| 2026-05-06 18:12 | 55.68663 | 12.84018 | 5336 ft | 258 kts | 126° |
| 2026-05-06 18:12 | 55.67272 | 12.86022 | 6120 ft | 269 kts | 154° |
| 2026-05-06 18:12 | 55.65412 | 12.86812 | 6576 ft | 279 kts | 173° |
| 2026-05-06 18:13 | 55.63470 | 12.87059 | 6877 ft | 279 kts | 175° |
| 2026-05-06 18:13 | 55.61525 | 12.87195 | 7156 ft | 281 kts | 176° |
| 2026-05-06 18:13 | 55.59559 | 12.86989 | 7738 ft | 286 kts | 194° |
| 2026-05-06 18:13 | 55.57796 | 12.85358 | 8577 ft | 289 kts | 220° |
| 2026-05-06 18:14 | 55.56285 | 12.83020 | 9506 ft | 287 kts | 222° |
| 2026-05-06 18:14 | 55.54801 | 12.80701 | 10302 ft | 290 kts | 222° |
| 2026-05-06 18:14 | 55.53235 | 12.78271 | 10598 ft | 311 kts | 222° |
| 2026-05-06 18:14 | 55.51542 | 12.75680 | 10746 ft | 334 kts | 221° |
| 2026-05-06 18:15 | 55.49727 | 12.72931 | 10972 ft | 351 kts | 221° |
| 2026-05-06 18:15 | 55.47844 | 12.70101 | 11525 ft | 358 kts | 222° |
| 2026-05-06 18:15 | 55.45937 | 12.67249 | 12151 ft | 361 kts | 221° |
| 2026-05-06 18:15 | 55.44016 | 12.64378 | 12839 ft | 363 kts | 221° |
| 2026-05-06 18:16 | 55.42084 | 12.61487 | 13517 ft | 366 kts | 222° |
| 2026-05-06 18:16 | 55.40141 | 12.58573 | 14134 ft | 369 kts | 222° |
| 2026-05-06 18:16 | 55.38183 | 12.55634 | 14706 ft | 372 kts | 222° |
| 2026-05-06 18:16 | 55.36207 | 12.52677 | 15287 ft | 374 kts | 221° |
| 2026-05-06 18:17 | 55.34217 | 12.49712 | 15881 ft | 376 kts | 221° |
| 2026-05-06 18:17 | 55.32233 | 12.46765 | 16457 ft | 379 kts | 221° |
| 2026-05-06 18:17 | 55.30212 | 12.43766 | 17044 ft | 382 kts | 221° |
| 2026-05-06 18:17 | 55.28174 | 12.40742 | 17653 ft | 385 kts | 221° |
| 2026-05-06 18:18 | 55.26120 | 12.37694 | 18261 ft | 388 kts | 221° |
| 2026-05-06 18:18 | 55.24052 | 12.34629 | 18799 ft | 391 kts | 221° |
| 2026-05-06 18:18 | 55.21968 | 12.31544 | 19339 ft | 393 kts | 221° |
| 2026-05-06 18:18 | 55.19873 | 12.28444 | 19881 ft | 395 kts | 221° |
| 2026-05-06 18:19 | 55.17763 | 12.25328 | 20414 ft | 397 kts | 221° |
| 2026-05-06 18:19 | 55.15665 | 12.22235 | 20915 ft | 399 kts | 221° |
| 2026-05-06 18:19 | 55.13540 | 12.19109 | 21426 ft | 400 kts | 221° |
| 2026-05-06 18:19 | 55.11400 | 12.15975 | 21888 ft | 402 kts | 221° |
| 2026-05-06 18:20 | 55.09251 | 12.12833 | 22339 ft | 404 kts | 221° |
| 2026-05-06 18:20 | 55.07093 | 12.09679 | 22784 ft | 406 kts | 221° |
| 2026-05-06 18:20 | 55.04923 | 12.06514 | 23099 ft | 406 kts | 221° |
| 2026-05-06 18:20 | 55.02751 | 12.03350 | 23378 ft | 407 kts | 221° |
| 2026-05-06 18:21 | 55.00572 | 12.00176 | 23637 ft | 409 kts | 221° |
| 2026-05-06 18:21 | 54.98385 | 11.96994 | 23860 ft | 410 kts | 221° |
| 2026-05-06 18:21 | 54.96188 | 11.93802 | 23945 ft | 414 kts | 221° |
| 2026-05-06 18:21 | 54.93948 | 11.90545 | 23954 ft | 424 kts | 221° |
| 2026-05-06 18:22 | 54.91665 | 11.87226 | 23958 ft | 430 kts | 221° |
| 2026-05-06 18:22 | 54.89361 | 11.83883 | 23953 ft | 432 kts | 221° |
| 2026-05-06 18:22 | 54.87048 | 11.80543 | 23956 ft | 433 kts | 221° |
| 2026-05-06 18:22 | 54.84733 | 11.77210 | 23956 ft | 433 kts | 221° |
| 2026-05-06 18:23 | 54.82414 | 11.73879 | 23953 ft | 433 kts | 221° |
| 2026-05-06 18:23 | 54.80095 | 11.70550 | 23950 ft | 433 kts | 221° |
| 2026-05-06 18:23 | 54.77775 | 11.67221 | 23950 ft | 433 kts | 221° |
| 2026-05-06 18:23 | 54.75458 | 11.63897 | 23950 ft | 433 kts | 221° |
| 2026-05-06 18:24 | 54.73142 | 11.60578 | 23947 ft | 433 kts | 221° |
| 2026-05-06 18:24 | 54.70823 | 11.57261 | 23930 ft | 433 kts | 220° |
| 2026-05-06 18:24 | 54.68530 | 11.53989 | 23926 ft | 433 kts | 220° |
| 2026-05-06 18:24 | 54.66193 | 11.50663 | 23751 ft | 437 kts | 220° |
| 2026-05-06 18:25 | 54.63829 | 11.47307 | 23509 ft | 437 kts | 220° |
| 2026-05-06 18:25 | 54.61480 | 11.43974 | 23231 ft | 436 kts | 220° |
| 2026-05-06 18:25 | 54.59137 | 11.40653 | 22973 ft | 435 kts | 220° |
| 2026-05-06 18:25 | 54.56806 | 11.37354 | 22922 ft | 433 kts | 220° |
| 2026-05-06 18:26 | 54.54471 | 11.34054 | 22940 ft | 434 kts | 220° |
| 2026-05-06 18:26 | 54.52141 | 11.30763 | 22875 ft | 431 kts | 220° |
| 2026-05-06 18:26 | 54.49866 | 11.27554 | 22107 ft | 425 kts | 220° |
| 2026-05-06 18:26 | 54.47588 | 11.24342 | 21272 ft | 421 kts | 220° |
| 2026-05-06 18:27 | 54.45328 | 11.21161 | 20445 ft | 419 kts | 220° |
| 2026-05-06 18:27 | 54.43080 | 11.18011 | 19815 ft | 414 kts | 219° |
| 2026-05-06 18:27 | 54.40851 | 11.14896 | 19371 ft | 408 kts | 219° |
| 2026-05-06 18:27 | 54.38671 | 11.11852 | 18937 ft | 398 kts | 219° |
| 2026-05-06 18:28 | 54.36543 | 11.08882 | 18496 ft | 391 kts | 219° |
| 2026-05-06 18:28 | 54.34470 | 11.05993 | 18056 ft | 385 kts | 219° |
| 2026-05-06 18:28 | 54.32395 | 11.03108 | 17566 ft | 380 kts | 219° |
| 2026-05-06 18:28 | 54.30463 | 11.00061 | 17083 ft | 375 kts | 227° |
| 2026-05-06 18:29 | 54.28811 | 10.96651 | 16610 ft | 370 kts | 233° |
| 2026-05-06 18:29 | 54.27261 | 10.93171 | 16142 ft | 365 kts | 232° |
| 2026-05-06 18:29 | 54.25720 | 10.89750 | 15678 ft | 361 kts | 232° |
| 2026-05-06 18:29 | 54.24180 | 10.86349 | 15223 ft | 361 kts | 232° |
| 2026-05-06 18:30 | 54.22648 | 10.82971 | 14773 ft | 358 kts | 231° |
| 2026-05-06 18:30 | 54.21127 | 10.79624 | 14334 ft | 355 kts | 231° |
| 2026-05-06 18:30 | 54.19634 | 10.76334 | 13904 ft | 354 kts | 231° |
| 2026-05-06 18:30 | 54.18123 | 10.73000 | 13439 ft | 355 kts | 231° |
| 2026-05-06 18:31 | 54.16618 | 10.69679 | 12950 ft | 352 kts | 232° |
| 2026-05-06 18:31 | 54.15124 | 10.66389 | 12475 ft | 350 kts | 232° |
| 2026-05-06 18:31 | 54.13629 | 10.63109 | 12005 ft | 350 kts | 231° |
| 2026-05-06 18:31 | 54.12130 | 10.59834 | 11547 ft | 350 kts | 232° |
| 2026-05-06 18:32 | 54.10631 | 10.56566 | 11096 ft | 349 kts | 232° |
| 2026-05-06 18:32 | 54.09160 | 10.53359 | 10907 ft | 348 kts | 233° |
| 2026-05-06 18:32 | 54.07671 | 10.50096 | 10914 ft | 349 kts | 233° |
| 2026-05-06 18:32 | 54.06176 | 10.46821 | 10917 ft | 350 kts | 232° |
| 2026-05-06 18:33 | 54.04680 | 10.43555 | 10918 ft | 350 kts | 232° |
| 2026-05-06 18:33 | 54.03176 | 10.40283 | 10919 ft | 351 kts | 232° |
| 2026-05-06 18:33 | 54.01666 | 10.37008 | 10919 ft | 352 kts | 233° |
| 2026-05-06 18:33 | 54.00153 | 10.33728 | 10913 ft | 352 kts | 232° |
| 2026-05-06 18:34 | 53.98662 | 10.30498 | 10911 ft | 352 kts | 233° |
| 2026-05-06 18:34 | 53.97372 | 10.26976 | 10909 ft | 351 kts | 245° |
| 2026-05-06 18:34 | 53.96323 | 10.23230 | 10910 ft | 351 kts | 245° |
| 2026-05-06 18:34 | 53.95271 | 10.19491 | 10902 ft | 350 kts | 245° |
| 2026-05-06 18:35 | 53.94223 | 10.15783 | 10462 ft | 347 kts | 245° |
| 2026-05-06 18:35 | 53.93192 | 10.12154 | 10267 ft | 335 kts | 245° |
| 2026-05-06 18:35 | 53.92197 | 10.08671 | 10140 ft | 322 kts | 246° |
| 2026-05-06 18:35 | 53.91243 | 10.05331 | 10008 ft | 304 kts | 246° |
| 2026-05-06 18:36 | 53.90343 | 10.02181 | 9645 ft | 292 kts | 245° |
| 2026-05-06 18:36 | 53.89465 | 9.99100 | 9058 ft | 288 kts | 245° |
| 2026-05-06 18:36 | 53.88590 | 9.96022 | 8661 ft | 289 kts | 245° |
| 2026-05-06 18:36 | 53.87716 | 9.92951 | 8300 ft | 289 kts | 245° |
| 2026-05-06 18:37 | 53.86851 | 9.89920 | 7939 ft | 289 kts | 245° |
| 2026-05-06 18:37 | 53.86261 | 9.87861 | 7701 ft | 288 kts | 245° |
| 2026-05-06 18:37 | 53.85107 | 9.83857 | 7430 ft | 280 kts | 244° |
| 2026-05-06 18:37 | 53.84264 | 9.80940 | 7303 ft | 271 kts | 245° |
| 2026-05-06 18:38 | 53.83449 | 9.78115 | 7175 ft | 263 kts | 245° |
| 2026-05-06 18:38 | 53.82661 | 9.75376 | 7025 ft | 256 kts | 245° |
| 2026-05-06 18:38 | 53.81887 | 9.72692 | 6909 ft | 253 kts | 245° |
| 2026-05-06 18:38 | 53.81127 | 9.70056 | 6899 ft | 252 kts | 245° |
| 2026-05-06 18:39 | 53.80358 | 9.67393 | 6760 ft | 250 kts | 245° |
| 2026-05-06 18:39 | 53.79594 | 9.64750 | 6473 ft | 249 kts | 245° |
| 2026-05-06 18:39 | 53.78833 | 9.62124 | 6147 ft | 250 kts | 245° |
| 2026-05-06 18:40 | 53.77300 | 9.56864 | 5468 ft | 249 kts | 244° |
| 2026-05-06 18:40 | 53.76534 | 9.54233 | 5175 ft | 248 kts | 244° |
| 2026-05-06 18:40 | 53.75761 | 9.51632 | 4925 ft | 247 kts | 239° |
| 2026-05-06 18:40 | 53.74730 | 9.49310 | 4662 ft | 248 kts | 224° |
| 2026-05-06 18:41 | 53.73426 | 9.47495 | 4399 ft | 246 kts | 211° |
| 2026-05-06 18:41 | 53.71997 | 9.45901 | 4138 ft | 245 kts | 212° |
| 2026-05-06 18:41 | 53.70521 | 9.44500 | 4013 ft | 243 kts | 197° |
| 2026-05-06 18:41 | 53.68888 | 9.43893 | 4014 ft | 240 kts | 179° |
| 2026-05-06 18:42 | 53.67245 | 9.44131 | 4013 ft | 236 kts | 162° |
| 2026-05-06 18:42 | 53.65639 | 9.44779 | 4011 ft | 236 kts | 163° |
| 2026-05-06 18:42 | 53.64054 | 9.45412 | 4010 ft | 237 kts | 163° |
| 2026-05-06 18:42 | 53.62453 | 9.46048 | 4013 ft | 236 kts | 163° |
| 2026-05-06 18:43 | 53.60855 | 9.46680 | 4016 ft | 236 kts | 163° |
| 2026-05-06 18:43 | 53.59256 | 9.47311 | 4013 ft | 236 kts | 163° |
| 2026-05-06 18:43 | 53.57659 | 9.47939 | 4012 ft | 235 kts | 163° |
| 2026-05-06 18:43 | 53.56066 | 9.48565 | 4011 ft | 235 kts | 163° |
| 2026-05-06 18:44 | 53.54474 | 9.49194 | 4012 ft | 235 kts | 163° |
| 2026-05-06 18:44 | 53.52882 | 9.49825 | 4012 ft | 235 kts | 163° |
| 2026-05-06 18:44 | 53.51252 | 9.50150 | 4009 ft | 239 kts | 182° |
| 2026-05-06 18:44 | 53.49648 | 9.49390 | 4012 ft | 244 kts | 207° |
| 2026-05-06 18:45 | 53.48732 | 9.48294 | 4011 ft | 246 kts | 223° |
| 2026-05-06 18:45 | 53.47608 | 9.46124 | 4013 ft | 246 kts | 229° |
| 2026-05-06 18:45 | 53.46505 | 9.43922 | 4011 ft | 247 kts | 229° |
| 2026-05-06 18:45 | 53.45342 | 9.41807 | 4007 ft | 246 kts | 215° |
| 2026-05-06 18:46 | 53.43267 | 9.40696 | 4013 ft | 237 kts | 171° |
| 2026-05-06 18:46 | 53.41763 | 9.41586 | 4015 ft | 228 kts | 138° |
| 2026-05-06 18:46 | 53.40829 | 9.43633 | 4013 ft | 221 kts | 105° |
| 2026-05-06 18:46 | 53.40676 | 9.45327 | 4013 ft | 217 kts | 84° |
| 2026-05-06 18:47 | 53.40930 | 9.47817 | 4012 ft | 217 kts | 75° |
| 2026-05-06 18:47 | 53.41295 | 9.50247 | 4013 ft | 218 kts | 74° |
| 2026-05-06 18:47 | 53.41683 | 9.52707 | 4010 ft | 218 kts | 74° |
| 2026-05-06 18:47 | 53.42071 | 9.55160 | 4011 ft | 218 kts | 74° |
| 2026-05-06 18:48 | 53.42550 | 9.57562 | 4008 ft | 217 kts | 59° |
| 2026-05-06 18:48 | 53.43454 | 9.59588 | 4008 ft | 218 kts | 50° |
| 2026-05-06 18:48 | 53.44440 | 9.61519 | 4008 ft | 218 kts | 50° |
| 2026-05-06 18:48 | 53.45423 | 9.63460 | 4007 ft | 218 kts | 50° |
| 2026-05-06 18:49 | 53.46403 | 9.65411 | 4009 ft | 219 kts | 50° |
| 2026-05-06 18:49 | 53.47370 | 9.67339 | 4003 ft | 211 kts | 51° |
| 2026-05-06 18:49 | 53.48276 | 9.69150 | 4003 ft | 195 kts | 51° |
| 2026-05-06 18:49 | 53.49107 | 9.70809 | 3954 ft | 182 kts | 51° |
| 2026-05-06 18:50 | 53.49908 | 9.72412 | 3775 ft | 176 kts | 51° |
| 2026-05-06 18:50 | 53.50687 | 9.73972 | 3560 ft | 172 kts | 51° |
| 2026-05-06 18:50 | 53.51447 | 9.75494 | 3365 ft | 167 kts | 51° |
| 2026-05-06 18:50 | 53.52190 | 9.76983 | 3128 ft | 165 kts | 51° |
| 2026-05-06 18:51 | 53.52923 | 9.78452 | 2890 ft | 164 kts | 51° |
| 2026-05-06 18:51 | 53.53650 | 9.79911 | 2660 ft | 162 kts | 51° |
| 2026-05-06 18:51 | 53.54371 | 9.81358 | 2441 ft | 161 kts | 51° |
| 2026-05-06 18:51 | 53.55088 | 9.82798 | 2222 ft | 160 kts | 51° |
| 2026-05-06 18:52 | 53.55801 | 9.84232 | 2002 ft | 159 kts | 51° |
| 2026-05-06 18:52 | 53.56502 | 9.85642 | 1786 ft | 155 kts | 51° |
| 2026-05-06 18:52 | 53.57180 | 9.87004 | 1564 ft | 148 kts | 51° |
| 2026-05-06 18:52 | 53.57811 | 9.88271 | 1399 ft | 134 kts | 51° |
| 2026-05-06 18:53 | 53.58397 | 9.89452 | 1194 ft | 132 kts | 50° |
| 2026-05-06 18:53 | 53.58985 | 9.90636 | 1008 ft | 131 kts | 51° |
| 2026-05-06 18:53 | 53.59569 | 9.91815 | 825 ft | 131 kts | 50° |
| 2026-05-06 18:53 | 53.60162 | 9.93012 | 639 ft | 135 kts | 49° |
| 2026-05-06 18:54 | 53.60763 | 9.94224 | 453 ft | 136 kts | 49° |
| 2026-05-06 18:54 | 53.61367 | 9.95443 | 301 ft | 137 kts | 50° |
| 2026-05-06 18:54 | 53.61962 | 9.96639 | 109 ft | 130 kts | 49° |
| 2026-05-06 18:54 | 53.62504 | 9.97735 | 41 ft | 106 kts | 50° |
| 2026-05-06 18:55 | 53.62861 | 9.98465 | 44 ft | 56 kts | 50° |
| 2026-05-06 18:55 | 53.63046 | 9.98838 | 46 ft | 28 kts | 52° |
| 2026-05-06 18:55 | 53.63094 | 9.99091 | 46 ft | 18 kts | 89° |
| 2026-05-06 18:55 | 53.63086 | 9.99257 | 47 ft | 14 kts | 94° |
| 2026-05-06 18:56 | 53.63105 | 9.99419 | 44 ft | 13 kts | 55° |
| 2026-05-06 18:56 | 53.63175 | 9.99531 | 46 ft | 12 kts | 47° |
| 2026-05-06 18:56 | 53.63209 | 9.99640 | 48 ft | 9 kts | 61° |
| 2026-05-06 18:56 | 53.63239 | 9.99708 | 48 ft | 8 kts | 45° |
| 2026-05-06 18:57 | 53.63293 | 9.99789 | 54 ft | 14 kts | 45° |
| 2026-05-06 18:57 | 53.63358 | 9.99925 | 48 ft | 16 kts | 51° |
| 2026-05-06 18:57 | 53.63424 | 10.00058 | 48 ft | 12 kts | 52° |
| 2026-05-06 18:57 | 53.63403 | 10.00188 | 48 ft | 10 kts | 125° |
| 2026-05-06 18:58 | 53.63345 | 10.00233 | 47 ft | 8 kts | 177° |
| 2026-05-06 18:58 | 53.63304 | 10.00236 | 48 ft | 1 kts | 176° |
| 2026-05-06 18:58 | 53.63303 | 10.00237 | 48 ft | 0 kts | 176° |
| 2026-05-06 18:59 | 53.63302 | 10.00237 | 48 ft | 1 kts | 176° |
| 2026-05-06 18:59 | 53.63285 | 10.00238 | 48 ft | 4 kts | 176° |
| 2026-05-06 18:59 | 53.63252 | 10.00244 | 48 ft | 5 kts | 165° |
| 2026-05-06 18:59 | 53.63243 | 10.00304 | 48 ft | 7 kts | 83° |
| 2026-05-06 19:00 | 53.63244 | 10.00347 | 48 ft | 2 kts | 87° |
| 2026-05-06 19:00 | 53.63245 | 10.00360 | 48 ft | 0 kts | 86° |